createdAt,value
2018-01-20T00:20:45.574Z,94951.97
2018-01-20T00:23:14.072Z,94963.34
2018-01-20T00:25:41.686Z,94958.11
2018-01-20T00:28:09.385Z,94953.41
2018-01-20T00:30:37.060Z,94952.22
2018-01-20T00:33:04.716Z,94960.31
2018-01-20T00:35:33.081Z,94965.92
2018-01-20T00:38:00.761Z,94943.41
2018-01-20T00:40:28.387Z,94952.58
2018-01-20T00:42:56.064Z,94969.30
2018-01-20T00:45:23.735Z,94952.75
2018-01-20T00:47:52.085Z,94943.59
2018-01-20T00:50:19.752Z,94960.73
2018-01-20T00:52:47.608Z,94966.40
2018-01-20T00:55:15.184Z,94932.07
2018-01-20T00:57:43.011Z,94965.22
2018-01-20T01:00:11.658Z,94961.60
2018-01-20T01:02:39.518Z,94914.41
2018-01-20T01:05:07.159Z,94956.58
2018-01-20T01:07:34.815Z,94953.93
2018-01-20T01:10:02.387Z,94931.07
2018-01-20T01:12:30.045Z,94945.73
2018-01-20T01:14:58.775Z,94943.91
2018-01-20T01:17:27.356Z,94925.10
2018-01-20T01:19:55.015Z,94931.84
2018-01-20T01:22:22.965Z,94951.71
2018-01-20T01:24:50.578Z,94942.02
2018-01-20T01:27:18.169Z,94940.07
2018-01-20T01:29:45.796Z,94938.53
2018-01-20T01:32:13.802Z,94937.98
2018-01-20T01:34:41.400Z,94929.57
2018-01-20T01:37:08.997Z,94926.29
2018-01-20T01:39:36.668Z,94928.53
2018-01-20T01:42:04.261Z,94927.59
2018-01-20T01:44:32.535Z,94909.97
2018-01-20T01:47:00.163Z,94915.16
2018-01-20T01:49:28.056Z,94906.31
2018-01-20T01:51:55.678Z,94907.20
2018-01-20T01:54:23.492Z,94903.73
2018-01-20T01:56:51.143Z,94901.99
2018-01-20T01:59:18.795Z,94901.15
2018-01-20T02:01:46.516Z,94890.95
2018-01-20T02:04:23.776Z,94882.17
2018-01-20T02:06:51.841Z,94875.48
2018-01-20T02:09:19.491Z,94866.90
2018-01-20T02:11:47.176Z,94865.70
2018-01-20T02:14:14.982Z,94869.20
2018-01-20T02:16:42.581Z,94881.17
2018-01-20T02:19:10.366Z,94873.94
2018-01-20T02:21:38.167Z,94871.44
2018-01-20T02:24:05.962Z,94881.95
2018-01-20T02:26:33.603Z,94878.27
2018-01-20T02:29:01.389Z,94877.21
2018-01-20T02:31:29.098Z,94871.07
2018-01-20T02:33:56.744Z,94868.00
2018-01-20T02:36:25.242Z,94876.78
2018-01-20T02:38:53.017Z,94872.48
2018-01-20T02:41:20.686Z,94868.94
2018-01-20T02:43:48.300Z,94875.94
2018-01-20T02:46:16.877Z,94875.58
2018-01-20T02:48:44.563Z,94875.67
2018-01-20T02:51:12.270Z,94860.27
2018-01-20T02:53:40.038Z,94869.86
2018-01-20T02:56:07.713Z,94864.23
2018-01-20T02:58:35.308Z,94861.44
2018-01-20T03:01:03.093Z,94859.45
2018-01-20T03:03:30.703Z,94848.94
2018-01-20T03:05:58.318Z,94861.33
2018-01-20T03:08:26.055Z,94855.22
2018-01-20T03:10:53.644Z,94851.20
2018-01-20T03:13:21.254Z,94864.16
2018-01-20T03:15:49.061Z,94860.56
2018-01-20T03:18:16.694Z,94867.97
2018-01-20T03:20:44.286Z,94864.44
2018-01-20T03:23:11.980Z,94858.39
2018-01-20T03:25:39.622Z,94858.98
2018-01-20T03:28:07.253Z,94864.95
2018-01-20T03:30:35.001Z,94869.47
2018-01-20T03:33:02.599Z,94859.14
2018-01-20T03:35:30.585Z,94863.22
2018-01-20T03:37:58.331Z,94862.58
2018-01-20T03:40:25.952Z,94872.05
2018-01-20T03:42:53.570Z,94876.25
2018-01-20T03:45:21.265Z,94880.82
2018-01-20T03:47:49.516Z,94871.70
2018-01-20T03:50:17.074Z,94874.31
2018-01-20T03:52:44.806Z,94879.70
2018-01-20T03:55:12.377Z,94869.48
2018-01-20T03:57:40.937Z,94871.30
2018-01-20T04:00:08.685Z,94868.17
2018-01-20T04:02:36.263Z,94868.22
2018-01-20T04:05:04.075Z,94860.00
2018-01-20T04:07:31.891Z,94861.63
2018-01-20T04:09:59.465Z,94876.28
2018-01-20T04:12:27.370Z,94853.27
2018-01-20T04:14:55.099Z,94846.25
2018-01-20T04:17:23.530Z,94853.47
2018-01-20T04:19:51.227Z,94850.38
2018-01-20T04:22:19.084Z,94849.22
2018-01-20T04:24:46.682Z,94857.88
2018-01-20T04:27:14.288Z,94856.73
2018-01-20T04:29:42.023Z,94862.55
2018-01-20T04:32:09.864Z,94852.33
2018-01-20T04:34:37.534Z,94855.00
2018-01-20T04:37:05.182Z,94860.50
2018-01-20T04:39:33.167Z,94868.59
2018-01-20T04:42:00.835Z,94866.18
2018-01-20T04:44:28.666Z,94854.67
2018-01-20T04:46:56.435Z,94855.53
2018-01-20T04:49:24.016Z,94871.33
2018-01-20T04:51:51.652Z,94873.34
2018-01-20T04:54:19.604Z,94871.67
2018-01-20T04:56:47.257Z,94862.23
2018-01-20T04:59:14.837Z,94877.75
2018-01-20T05:01:43.815Z,94871.13
2018-01-20T05:04:11.424Z,94872.80
2018-01-20T05:06:39.008Z,94873.86
2018-01-20T05:09:06.722Z,94861.23
2018-01-20T05:11:34.320Z,94867.59
2018-01-20T05:14:01.962Z,94866.25
2018-01-20T05:16:29.700Z,94860.07
2018-01-20T05:18:57.299Z,94839.30
2018-01-20T05:21:24.994Z,94873.88
2018-01-20T05:23:52.753Z,94866.72
2018-01-20T05:26:20.383Z,94867.70
2018-01-20T05:28:49.187Z,94859.70
2018-01-20T05:31:16.998Z,94857.83
2018-01-20T05:33:44.686Z,94853.27
2018-01-20T05:36:12.281Z,94843.86
2018-01-20T05:38:40.070Z,94835.94
2018-01-20T05:41:07.777Z,94826.64
2018-01-20T05:43:35.390Z,94828.72
2018-01-20T05:46:03.238Z,94816.91
2018-01-20T05:48:30.882Z,94806.47
2018-01-20T05:50:58.515Z,94824.14
2018-01-20T05:53:26.253Z,94804.76
2018-01-20T05:55:54.046Z,94810.23
2018-01-20T05:58:21.734Z,94797.80
2018-01-20T06:00:49.512Z,94809.80
2018-01-20T06:03:18.081Z,94804.47
2018-01-20T06:05:45.869Z,94809.73
2018-01-20T06:08:13.698Z,94818.05
2018-01-20T06:10:41.328Z,94830.17
2018-01-20T06:13:09.913Z,94834.74
2018-01-20T06:15:37.742Z,94840.22
2018-01-20T06:18:05.391Z,94845.06
2018-01-20T06:20:33.062Z,94862.38
2018-01-20T06:23:00.811Z,94864.45
2018-01-20T06:25:28.504Z,94867.59
2018-01-20T06:27:56.142Z,94862.70
2018-01-20T06:30:23.851Z,94843.14
2018-01-20T06:32:51.570Z,94861.63
2018-01-20T06:35:19.475Z,94851.39
2018-01-20T06:37:47.258Z,94841.29
2018-01-20T06:40:15.191Z,94845.56
2018-01-20T06:42:42.835Z,94843.92
2018-01-20T06:45:10.601Z,94850.98
2018-01-20T06:47:38.221Z,94856.62
2018-01-20T06:50:06.646Z,94864.98
2018-01-20T06:52:34.496Z,94883.25
2018-01-20T06:55:02.131Z,94884.91
2018-01-20T06:57:29.928Z,94879.59
2018-01-20T06:59:58.017Z,94887.73
2018-01-20T07:02:26.611Z,94881.61
2018-01-20T07:04:54.211Z,94901.09
2018-01-20T07:07:21.996Z,94890.33
2018-01-20T07:09:49.712Z,94892.50
2018-01-20T07:12:17.648Z,94900.48
2018-01-20T07:14:45.271Z,94892.00
2018-01-20T07:17:13.085Z,94903.64
2018-01-20T07:19:40.698Z,94899.28
2018-01-20T07:22:08.416Z,94893.98
2018-01-20T07:24:36.208Z,94907.12
2018-01-20T07:27:04.911Z,94901.73
2018-01-20T07:29:32.503Z,94905.48
2018-01-20T07:32:00.265Z,94902.42
2018-01-20T07:34:27.981Z,94900.34
2018-01-20T07:36:55.615Z,94894.56
2018-01-20T07:39:23.577Z,94889.46
2018-01-20T07:41:51.151Z,94891.50
2018-01-20T07:44:18.772Z,94885.72
2018-01-20T07:46:46.496Z,94883.30
2018-01-20T07:49:14.301Z,94870.75
2018-01-20T07:51:41.940Z,94878.65
2018-01-20T07:54:10.767Z,94892.83
2018-01-20T07:56:38.922Z,94895.53
2018-01-20T07:59:06.541Z,94885.67
2018-01-20T08:01:35.292Z,94893.72
2018-01-20T08:04:16.104Z,94887.03
2018-01-20T08:06:45.074Z,94892.70
2018-01-20T08:09:37.321Z,94895.06
2018-01-20T08:12:05.552Z,94894.32
2018-01-20T08:14:34.162Z,94903.92
2018-01-20T08:17:03.664Z,94897.41
2018-01-20T08:19:31.723Z,94905.23
2018-01-20T08:21:59.337Z,94900.92
2018-01-20T08:24:27.052Z,94912.11
2018-01-20T08:26:55.582Z,94919.27
2018-01-20T08:29:23.243Z,94918.77
2018-01-20T08:31:51.002Z,94916.11
2018-01-20T08:34:18.653Z,94899.00
2018-01-20T08:36:46.497Z,94920.19
2018-01-20T08:39:16.771Z,94920.52
2018-01-20T08:41:44.630Z,94914.25
2018-01-20T08:44:12.301Z,94898.30
2018-01-20T08:46:39.959Z,94893.28
2018-01-20T08:49:07.570Z,94892.58
2018-01-20T08:51:36.672Z,94900.47
2018-01-20T08:54:04.670Z,94925.66
2018-01-20T08:56:32.464Z,94926.38
2018-01-20T08:59:00.063Z,94918.06
2018-01-20T09:01:27.759Z,94895.42
2018-01-20T09:03:55.381Z,94910.59
2018-01-20T09:06:23.183Z,94907.05
2018-01-20T09:08:50.910Z,94899.83
2018-01-20T09:11:22.110Z,94898.66
2018-01-20T09:13:49.915Z,94901.99
2018-01-20T09:16:17.717Z,94888.51
2018-01-20T09:18:45.340Z,94882.66
2018-01-20T09:21:12.985Z,94867.02
2018-01-20T09:23:41.564Z,94870.03
2018-01-20T09:26:09.243Z,94865.83
2018-01-20T09:28:36.999Z,94856.08
2018-01-20T09:31:05.508Z,94860.64
2018-01-20T09:33:38.100Z,94861.47
2018-01-20T09:36:06.662Z,94851.75
2018-01-20T09:38:34.284Z,94846.45
2018-01-20T09:41:01.907Z,94847.55
2018-01-20T09:43:30.231Z,94843.70
2018-01-20T09:46:09.138Z,94844.21
2018-01-20T09:48:36.881Z,94846.53
2018-01-20T09:51:04.517Z,94828.94
2018-01-20T09:53:32.238Z,94824.59
2018-01-20T09:56:00.084Z,94828.20
2018-01-20T09:58:27.730Z,94833.70
2018-01-20T10:00:55.537Z,94821.48
2018-01-20T10:03:23.652Z,94815.14
2018-01-20T10:05:51.386Z,94813.84
2018-01-20T10:08:21.770Z,94818.63
2018-01-20T10:10:52.890Z,94827.50
2018-01-20T10:13:51.386Z,94813.16
2018-01-20T10:19:49.482Z,94793.85
2018-01-20T13:27:45.684Z,94746.98
2018-01-20T13:30:18.246Z,94755.18
2018-01-20T13:35:38.715Z,94751.02
2018-01-20T13:38:06.395Z,94763.17
2018-01-20T13:40:35.689Z,94760.42
2018-01-20T13:43:06.222Z,94766.83
2018-01-20T13:45:35.620Z,94756.64
2018-01-20T13:48:05.832Z,94763.38
2018-01-20T13:50:35.202Z,94748.05
2018-01-20T13:53:03.215Z,94752.03
2018-01-20T13:55:31.036Z,94744.47
2018-01-20T13:57:58.978Z,94742.03
2018-01-20T14:00:26.826Z,94740.38
2018-01-20T14:02:54.547Z,94749.81
2018-01-20T14:05:22.252Z,94757.67
2018-01-20T14:07:50.033Z,94734.88
2018-01-20T14:10:17.886Z,94747.11
2018-01-20T14:12:56.362Z,94757.72
2018-01-20T14:15:24.521Z,94751.69
2018-01-20T14:17:52.177Z,94762.91
2018-01-20T14:20:19.904Z,94761.80
2018-01-20T14:22:47.610Z,94765.88
2018-01-20T14:25:17.309Z,94757.47
2018-01-20T14:27:45.113Z,94774.15
2018-01-20T14:30:13.211Z,94774.56
2018-01-20T14:32:41.140Z,94782.27
2018-01-20T14:35:09.010Z,94781.95
2018-01-20T14:37:36.902Z,94788.66
2018-01-20T14:40:05.116Z,94800.92
2018-01-20T14:42:33.139Z,94810.99
2018-01-20T14:45:00.948Z,94820.63
2018-01-20T14:47:28.853Z,94813.84
2018-01-20T14:49:57.561Z,94827.88
2018-01-20T14:52:25.463Z,94823.11
2018-01-20T14:54:53.397Z,94832.95
2018-01-20T14:57:21.713Z,94837.34
2018-01-20T14:59:49.658Z,94841.50
2018-01-20T15:02:17.897Z,94859.62
2018-01-20T15:04:45.638Z,94875.14
2018-01-20T15:07:13.739Z,94878.64
2018-01-20T15:09:42.846Z,94854.98
2018-01-20T15:12:10.939Z,94855.30
2018-01-20T15:14:40.129Z,94867.02
2018-01-20T15:17:08.743Z,94859.25
2018-01-20T15:19:37.292Z,94855.97
2018-01-20T15:22:05.838Z,94870.91
2018-01-20T15:24:33.686Z,94874.49
2018-01-20T15:27:01.639Z,94871.23
2018-01-20T15:29:29.358Z,94871.39
2018-01-20T15:31:58.182Z,94875.27
2018-01-20T15:34:25.986Z,94878.87
2018-01-20T15:36:54.195Z,94882.63
2018-01-20T15:39:22.006Z,94873.94
2018-01-20T15:41:50.023Z,94878.53
2018-01-20T15:44:17.800Z,94885.39
2018-01-20T15:46:46.101Z,94898.05
2018-01-20T15:49:14.050Z,94873.32
2018-01-20T15:51:42.550Z,94907.80
2018-01-20T15:54:10.897Z,94894.19
2018-01-20T15:56:46.568Z,94899.36
2018-01-20T15:59:15.077Z,94917.53
2018-01-20T16:01:43.146Z,94902.60
2018-01-20T16:04:10.885Z,94892.41
2018-01-20T16:06:41.675Z,94908.39
2018-01-20T16:09:09.380Z,94908.45
2018-01-20T16:11:37.121Z,94908.70
2018-01-20T16:14:05.688Z,94914.19
2018-01-20T16:16:35.166Z,94941.17
2018-01-20T16:19:10.521Z,94854.09
2018-01-20T16:21:38.218Z,94934.98
2018-01-20T16:24:05.968Z,94934.33
2018-01-20T16:26:33.597Z,94936.89
2018-01-20T16:29:01.560Z,94918.11
2018-01-20T16:31:29.363Z,94923.53
2018-01-20T16:33:57.356Z,94923.45
2018-01-20T16:36:25.263Z,94932.44
2018-01-20T16:38:53.087Z,94932.70
2018-01-20T16:41:21.971Z,94947.19
2018-01-20T16:43:50.126Z,94939.05
2018-01-20T16:46:18.718Z,94941.98
2018-01-20T16:48:46.354Z,94932.75
2018-01-20T16:51:15.632Z,94932.23
2018-01-20T16:53:43.572Z,94939.75
2018-01-20T16:56:11.321Z,94950.76
2018-01-20T16:58:53.973Z,94957.67
2018-01-20T17:01:21.739Z,94966.75
2018-01-20T17:03:49.761Z,94972.22
2018-01-20T17:06:17.782Z,94978.00
2018-01-20T17:08:45.670Z,94979.78
2018-01-20T17:11:13.415Z,94988.80
2018-01-20T17:13:46.667Z,94976.28
2018-01-20T17:16:14.324Z,94975.92
2018-01-20T17:18:43.264Z,94963.16
2018-01-20T17:21:12.103Z,94963.66
2018-01-20T17:23:40.246Z,94965.23
2018-01-20T17:26:08.136Z,94955.08
2018-01-20T17:28:36.530Z,94951.44
2018-01-20T17:31:04.390Z,94948.70
2018-01-20T17:33:32.166Z,94949.28
2018-01-20T17:36:00.200Z,94955.66
2018-01-20T17:38:28.201Z,94951.77
2018-01-20T17:40:57.557Z,94943.28
2018-01-20T17:43:26.032Z,94946.68
2018-01-20T17:45:54.549Z,94941.18
2018-01-20T17:48:23.528Z,94932.87
2018-01-20T17:50:51.417Z,94940.32
2018-01-20T17:53:19.775Z,94941.08
2018-01-20T17:55:48.125Z,94929.05
2018-01-20T17:58:20.983Z,94921.84
2018-01-20T18:00:49.010Z,94907.36
2018-01-20T18:03:19.160Z,94913.98
2018-01-20T18:05:47.055Z,94900.80
2018-01-20T18:08:15.340Z,94898.14
2018-01-20T18:10:43.701Z,94899.93
2018-01-20T18:13:11.375Z,94899.88
2018-01-20T18:15:39.786Z,94893.87
2018-01-20T18:18:07.423Z,94903.31
2018-01-20T18:20:35.955Z,94919.45
2018-01-20T18:23:03.743Z,94951.55
2018-01-20T18:25:31.755Z,94983.63
2018-01-20T18:27:59.574Z,94998.40
2018-01-20T18:30:29.796Z,95005.09
2018-01-20T18:32:59.248Z,95012.05
2018-01-20T18:35:28.161Z,95005.91
2018-01-20T18:41:02.436Z,94989.73
2018-01-20T18:43:30.306Z,94988.80
2018-01-20T18:45:57.948Z,94980.61
2018-01-20T18:48:26.815Z,94983.39
2018-01-20T18:51:02.761Z,94980.73
2018-01-20T18:53:51.355Z,94995.39
2018-01-20T18:56:19.837Z,95018.13
2018-01-20T18:58:47.557Z,95022.02
2018-01-20T19:01:15.723Z,95018.52
2018-01-20T19:03:43.390Z,95013.27
2018-01-20T19:06:12.423Z,95011.34
2018-01-20T19:08:41.532Z,95009.28
2018-01-20T19:11:09.205Z,95000.90
2018-01-20T19:13:37.421Z,94937.60
2018-01-20T19:16:06.607Z,94993.33
2018-01-20T19:18:35.116Z,94984.02
2018-01-20T19:21:04.221Z,94990.52
2018-01-20T19:23:37.647Z,94993.69
2018-01-20T19:26:05.259Z,94894.80
2018-01-20T19:28:34.273Z,94986.69
2018-01-20T19:31:02.217Z,94979.80
2018-01-20T19:33:29.959Z,94983.48
2018-01-20T19:35:57.699Z,94985.66
2018-01-20T19:38:26.008Z,94978.81
2018-01-20T19:41:24.806Z,94974.89
2018-01-20T19:43:58.040Z,94984.27
2018-01-20T19:46:27.331Z,94977.02
2018-01-20T19:48:54.943Z,94973.17
2018-01-20T19:51:22.712Z,94980.30
2018-01-20T19:53:55.459Z,94982.81
2018-01-20T19:56:23.388Z,94977.59
2018-01-20T19:58:51.755Z,94982.45
2018-01-20T20:01:20.476Z,94969.17
2018-01-20T20:03:48.950Z,94972.67
2018-01-20T20:06:16.850Z,94981.94
2018-01-20T20:08:45.886Z,95013.30
2018-01-20T20:11:13.627Z,94978.14
2018-01-20T20:13:41.468Z,94978.63
2018-01-20T20:16:09.339Z,94980.02
2018-01-20T20:18:37.891Z,94974.39
2018-01-20T20:21:06.334Z,94977.76
2018-01-20T20:26:22.377Z,94983.98
2018-01-20T20:31:40.978Z,94973.31
2018-01-20T20:34:17.106Z,94970.47
2018-01-20T20:36:57.539Z,94967.72
2018-01-20T20:39:55.259Z,94960.66
2018-01-20T21:06:05.488Z,94935.06
2018-01-20T21:08:36.208Z,94936.75
2018-01-20T21:11:06.208Z,94939.91
2018-01-20T21:13:37.736Z,94922.28
2018-01-20T21:16:11.146Z,94916.56
2018-01-20T21:18:42.081Z,94911.14
2018-01-20T21:21:10.245Z,94910.64
2018-01-20T21:23:38.230Z,94910.69
2018-01-20T21:26:15.815Z,94907.75
2018-01-20T21:31:49.696Z,94902.34
2018-01-20T21:34:23.272Z,94909.56
2018-01-20T21:36:55.464Z,94907.25
2018-01-20T21:39:28.033Z,94907.62
2018-01-20T21:41:58.614Z,94906.64
2018-01-20T21:44:28.190Z,94920.03
2018-01-20T21:46:58.307Z,94921.05
2018-01-20T21:49:32.241Z,94924.41
2018-01-20T21:52:02.941Z,94925.59
2018-01-20T21:54:31.426Z,94925.02
2018-01-20T21:57:06.710Z,94924.89
2018-01-20T21:59:38.435Z,94933.55
2018-01-20T22:02:07.792Z,94929.16
2018-01-20T22:04:38.033Z,94936.94
2018-01-20T22:07:08.895Z,94911.31
2018-01-20T22:09:37.795Z,94946.56
2018-01-20T22:12:06.135Z,94953.80
2018-01-20T22:14:34.330Z,94950.82
2018-01-20T22:17:02.336Z,94953.27
2018-01-20T22:19:31.402Z,94953.88
2018-01-20T22:21:59.659Z,94949.28
2018-01-20T22:24:29.452Z,94945.98
2018-01-20T22:26:57.019Z,94949.64
2018-01-20T22:29:24.734Z,94937.08
2018-01-20T22:32:01.334Z,94931.20
2018-01-20T22:34:44.639Z,94926.32
2018-01-20T22:37:16.279Z,94931.87
2018-01-20T22:39:45.129Z,94919.95
2018-01-20T22:42:15.351Z,94920.38
2018-01-20T22:44:44.742Z,94913.98
2018-01-20T22:47:13.080Z,94918.95
2018-01-20T22:49:40.703Z,94922.77
2018-01-20T22:52:08.805Z,94929.21
2018-01-20T22:54:40.806Z,94921.07
2018-01-20T22:57:09.485Z,94925.48
2018-01-20T22:59:37.177Z,94927.77
2018-01-20T23:02:07.433Z,94896.45
2018-01-20T23:04:55.180Z,94909.81
2018-01-20T23:07:23.290Z,94906.19
2018-01-20T23:12:26.066Z,94917.47
2018-01-20T23:14:54.870Z,94914.02
2018-01-20T23:17:22.900Z,94920.73
2018-01-20T23:26:44.949Z,94932.20
2018-01-20T23:29:13.463Z,94917.85
2018-01-20T23:31:43.167Z,94914.41
2018-01-20T23:34:11.450Z,94912.44
2018-01-20T23:36:40.446Z,94924.63
2018-01-20T23:39:08.330Z,94919.53
2018-01-20T23:41:38.546Z,94926.23
2018-01-20T23:44:12.203Z,94929.02
2018-01-20T23:46:40.214Z,94917.05
2018-01-20T23:49:08.855Z,94913.89
2018-01-20T23:51:37.347Z,94918.95
2018-01-20T23:54:06.251Z,94921.45
2018-01-20T23:56:34.825Z,94913.88
2018-01-20T23:59:03.163Z,94915.25
